createdAt,value
2018-12-23T00:04:54.543Z,77.70
2018-12-23T00:09:47.814Z,77.33
2018-12-23T00:14:41.095Z,77.25
2018-12-23T00:19:34.372Z,77.32
2018-12-23T00:24:27.726Z,76.79
2018-12-23T00:29:20.991Z,76.39
2018-12-23T00:34:14.270Z,76.53
2018-12-23T00:39:07.567Z,76.34
2018-12-23T01:00:22.656Z,77.51
2018-12-23T01:05:15.915Z,77.00
2018-12-23T01:10:09.320Z,76.82
2018-12-23T01:15:02.599Z,76.39
2018-12-23T01:19:55.892Z,76.45
2018-12-23T01:41:04.507Z,78.40
2018-12-23T01:45:57.930Z,79.47
2018-12-23T01:50:51.212Z,80.56
2018-12-23T01:55:44.499Z,80.90
2018-12-23T02:00:37.883Z,81.76
2018-12-23T02:16:20.399Z,82.52
2018-12-23T02:21:13.703Z,83.25
2018-12-23T02:26:06.990Z,83.96
2018-12-23T02:31:00.306Z,84.25
2018-12-23T02:52:07.876Z,84.54
2018-12-23T02:57:01.150Z,83.42
2018-12-23T03:01:54.443Z,83.29
2018-12-23T03:06:47.730Z,81.72
2018-12-23T03:11:41.040Z,81.78
2018-12-23T03:16:34.311Z,81.64
2018-12-23T03:21:27.584Z,81.75
2018-12-23T03:26:20.934Z,83.52
2018-12-23T03:31:14.204Z,85.00
2018-12-23T03:52:21.783Z,85.42
2018-12-23T03:57:15.231Z,84.53
2018-12-23T04:02:08.510Z,83.94
2018-12-23T04:07:01.802Z,84.28
2018-12-23T04:11:55.061Z,84.69
2018-12-23T04:33:02.978Z,84.25
2018-12-23T04:37:56.271Z,83.87
2018-12-23T04:42:49.544Z,84.41
2018-12-23T04:47:42.809Z,82.85
2018-12-23T05:08:50.428Z,84.21
2018-12-23T05:13:43.712Z,84.24
2018-12-23T05:18:36.981Z,84.59
2018-12-23T05:23:30.248Z,84.72
2018-12-23T05:44:38.058Z,84.06
2018-12-23T05:49:31.321Z,84.04
2018-12-23T05:54:24.576Z,84.25
2018-12-23T05:59:17.954Z,84.33
2018-12-23T06:04:11.242Z,84.28
2018-12-23T06:09:06.340Z,83.78
2018-12-23T06:13:59.608Z,83.92
2018-12-23T06:18:52.901Z,83.83
2018-12-23T06:23:46.154Z,83.42
2018-12-23T06:44:54.042Z,82.84
2018-12-23T06:49:47.304Z,82.53
2018-12-23T06:54:40.579Z,82.90
2018-12-23T06:59:33.834Z,82.33
2018-12-23T07:04:27.114Z,82.17
2018-12-23T07:09:20.374Z,82.74
2018-12-23T07:14:13.695Z,82.84
2018-12-23T07:19:06.956Z,82.58
2018-12-23T07:40:14.978Z,82.57
2018-12-23T07:45:08.257Z,81.55
2018-12-23T07:50:01.545Z,81.61
2018-12-23T07:54:54.819Z,81.25
2018-12-23T07:59:48.078Z,81.12
2018-12-23T08:04:41.376Z,81.38
2018-12-23T08:09:34.660Z,80.69
2018-12-23T08:14:27.947Z,80.69
2018-12-23T08:35:35.538Z,80.23
2018-12-23T08:40:28.843Z,79.85
2018-12-23T08:45:22.135Z,79.22
2018-12-23T08:50:15.434Z,79.12
2018-12-23T08:55:08.829Z,79.58
2018-12-23T09:00:02.191Z,79.07
2018-12-23T09:04:55.467Z,79.02
2018-12-23T09:09:48.742Z,78.97
2018-12-23T09:14:42.066Z,78.60
2018-12-23T09:19:35.342Z,78.07
2018-12-23T09:40:44.140Z,78.58
2018-12-23T09:45:37.423Z,78.45
2018-12-23T09:50:30.718Z,78.31
2018-12-23T09:55:24.044Z,78.06
2018-12-23T10:00:17.527Z,77.74
2018-12-23T10:21:25.347Z,76.94
2018-12-23T10:26:18.739Z,76.77
2018-12-23T10:31:12.038Z,76.78
2018-12-23T10:36:05.331Z,76.72
2018-12-23T10:40:58.618Z,76.72
2018-12-23T10:51:16.939Z,78.01
2018-12-23T10:56:10.223Z,78.08
2018-12-23T11:01:03.502Z,79.01
2018-12-23T11:05:56.829Z,80.10
2018-12-23T11:27:04.096Z,81.32
2018-12-23T11:31:57.383Z,80.67
2018-12-23T11:36:50.690Z,81.10
2018-12-23T11:41:43.962Z,81.59
2018-12-23T11:46:37.415Z,82.04
2018-12-23T11:51:30.822Z,81.56
2018-12-23T11:56:24.106Z,82.17
2018-12-23T12:01:17.388Z,83.04
2018-12-23T12:06:10.690Z,82.95
2018-12-23T12:27:18.238Z,84.43
2018-12-23T12:32:11.518Z,85.25
2018-12-23T12:37:04.847Z,85.97
2018-12-23T12:41:58.217Z,85.90
2018-12-23T12:46:51.495Z,86.62
2018-12-23T13:07:59.443Z,86.60
2018-12-23T13:12:52.720Z,87.13
2018-12-23T13:17:45.998Z,87.18
2018-12-23T13:22:39.274Z,88.04
2018-12-23T13:44:03.174Z,88.75
2018-12-23T13:49:21.851Z,89.24
2018-12-23T14:00:53.639Z,89.36
2018-12-23T14:06:21.023Z,89.11
2018-12-23T14:11:49.424Z,89.05
2018-12-23T14:17:03.522Z,89.21
2018-12-23T14:22:12.904Z,88.72
2018-12-23T14:27:27.008Z,88.52
2018-12-23T14:32:35.061Z,88.86
2018-12-23T14:37:42.980Z,89.12
2018-12-23T14:42:50.678Z,89.70
2018-12-23T14:47:45.414Z,90.10
2018-12-23T14:52:59.492Z,90.86
2018-12-23T14:58:07.510Z,89.96
2018-12-23T15:03:21.608Z,88.15
2018-12-23T15:08:28.584Z,88.36
2018-12-23T15:13:42.696Z,88.06
2018-12-23T15:18:49.320Z,89.26
2018-12-23T15:24:03.397Z,88.65
2018-12-23T15:28:58.138Z,89.05
2018-12-23T15:34:12.239Z,89.27
2018-12-23T15:39:19.690Z,88.95
2018-12-23T15:44:33.777Z,90.23
2018-12-23T15:49:41.409Z,90.67
2018-12-23T15:54:55.518Z,91.16
2018-12-23T16:00:03.504Z,90.57
2018-12-23T16:05:11.238Z,90.10
2018-12-23T16:10:18.736Z,89.40
2018-12-23T16:15:32.819Z,89.12
2018-12-23T16:20:40.175Z,89.15
2018-12-23T16:25:54.317Z,88.97
2018-12-23T16:31:01.943Z,88.91
2018-12-23T16:36:15.512Z,88.46
2018-12-23T16:41:29.312Z,87.90
2018-12-23T16:46:38.006Z,88.03
2018-12-23T16:51:52.134Z,87.45
2018-12-23T16:57:25.995Z,87.29
2018-12-23T17:08:37.200Z,87.35
2018-12-23T17:14:10.691Z,86.81
2018-12-23T17:19:19.324Z,87.54
2018-12-23T17:24:33.417Z,87.57
2018-12-23T17:29:41.465Z,87.72
2018-12-23T17:34:55.555Z,88.43
2018-12-23T17:40:02.388Z,88.46
2018-12-23T17:57:18.415Z,89.37
2018-12-23T18:02:13.150Z,89.53
2018-12-23T18:07:21.160Z,89.37
2018-12-23T18:12:35.242Z,89.53
2018-12-23T18:17:46.447Z,88.97
2018-12-23T18:23:36.560Z,89.19
2018-12-23T18:29:09.436Z,89.53
2018-12-23T18:39:56.586Z,88.62
2018-12-23T18:44:51.319Z,88.17
2018-12-23T18:50:06.945Z,88.31
2018-12-23T18:55:14.855Z,88.87
2018-12-23T19:00:28.952Z,89.13
2018-12-23T19:05:42.564Z,89.65
2018-12-23T19:10:52.064Z,89.45
2018-12-23T19:22:36.542Z,89.50
2018-12-23T19:33:51.943Z,89.08
2018-12-23T20:32:01.766Z,88.64
2018-12-23T20:37:17.870Z,88.40
2018-12-23T20:49:09.666Z,88.41
2018-12-23T21:17:18.170Z,89.67
2018-12-23T21:23:08.124Z,89.64
2018-12-23T21:28:20.672Z,89.68
2018-12-23T21:40:13.381Z,89.55
2018-12-23T21:45:43.615Z,90.19
2018-12-23T21:51:21.139Z,90.03
2018-12-23T21:56:37.179Z,89.75
2018-12-23T22:18:16.710Z,89.82
2018-12-23T22:29:31.409Z,89.28
2018-12-23T22:34:44.870Z,88.88
2018-12-23T22:39:39.589Z,88.62
2018-12-23T22:57:03.306Z,87.81
2018-12-23T23:02:16.438Z,87.97
2018-12-23T23:07:24.642Z,87.75
2018-12-23T23:12:19.327Z,87.62
2018-12-23T23:17:33.391Z,87.75
2018-12-23T23:22:41.108Z,87.50
2018-12-23T23:27:55.151Z,87.27
2018-12-23T23:33:02.832Z,87.20
2018-12-23T23:44:57.464Z,87.55
2018-12-23T23:49:52.135Z,86.99
2018-12-23T23:55:06.226Z,87.14
